Time,TemperatureF,DewpointF,PressureIn,WindDirection,WindDirectionDegrees,WindSpeedMPH,WindSpeedGustMPH,Humidity,HourlyPrecipIn,Conditions,Clouds,dailyrainin,SolarRadiationWatts/m^2,SoftwareType,DateUTC
2013-09-13 00:00:00,51.0,43.0,-100.00,North,0,6.0,-999.0,74,-99.99,,,-99.99,0.000000,,2013-09-13 05:00:00,
2013-09-13 00:43:00,51.0,43.0,-100.00,North,0,6.0,-999.0,74,-99.99,,,-99.99,0.000000,,2013-09-13 05:43:00,
2013-09-13 00:53:00,51.0,43.0,-100.00,North,0,6.0,-999.0,74,-99.99,,,-99.99,0.000000,,2013-09-13 05:53:00,
2013-09-13 01:00:00,51.0,44.0,-100.00,North,0,6.0,-999.0,76,-99.99,,,-99.99,0.000000,,2013-09-13 06:00:00,
2013-09-13 01:42:00,51.0,44.0,-100.00,North,0,6.0,-999.0,76,-99.99,,,-99.99,0.000000,,2013-09-13 06:42:00,
2013-09-13 01:52:00,51.0,44.0,-100.00,North,0,6.0,-999.0,76,-99.99,,,-99.99,0.000000,,2013-09-13 06:52:00,
2013-09-13 02:00:00,50.0,43.0,-100.00,North,0,6.0,-999.0,76,-99.99,,,-99.99,0.000000,,2013-09-13 07:00:00,
2013-09-13 02:43:00,50.0,43.0,-100.00,North,0,6.0,-999.0,76,-99.99,,,-99.99,0.000000,,2013-09-13 07:43:00,
2013-09-13 02:52:00,50.0,43.0,-100.00,North,0,6.0,-999.0,76,-99.99,,,-99.99,0.000000,,2013-09-13 07:52:00,
2013-09-13 04:00:00,50.0,40.0,-100.00,North,0,6.0,-999.0,66,-99.99,,,-99.99,0.000000,,2013-09-13 09:00:00,
2013-09-13 04:43:00,50.0,40.0,-100.00,North,0,6.0,-999.0,66,-99.99,,,-99.99,0.000000,,2013-09-13 09:43:00,
2013-09-13 04:54:00,50.0,40.0,-100.00,North,0,6.0,-999.0,66,-99.99,,,-99.99,0.000000,,2013-09-13 09:54:00,
2013-09-13 05:00:00,50.0,39.0,-100.00,North,0,6.0,-999.0,66,-99.99,,,-99.99,0.000000,,2013-09-13 10:00:00,
2013-09-13 05:42:00,50.0,39.0,-100.00,North,0,6.0,-999.0,66,-99.99,,,-99.99,0.000000,,2013-09-13 10:42:00,
2013-09-13 05:53:00,50.0,39.0,-100.00,North,0,6.0,-999.0,66,-99.99,,,-99.99,0.000000,,2013-09-13 10:53:00,
2013-09-13 06:00:00,49.0,37.0,-100.00,North,0,5.0,-999.0,63,-99.99,,,-99.99,0.000000,,2013-09-13 11:00:00,
2013-09-13 06:43:00,49.0,37.0,-100.00,North,0,5.0,-999.0,63,-99.99,,,-99.99,0.000000,,2013-09-13 11:43:00,
2013-09-13 06:52:00,49.0,37.0,-100.00,North,0,5.0,-999.0,63,-99.99,,,-99.99,0.000000,,2013-09-13 11:52:00,
2013-09-13 07:00:00,49.0,37.0,-100.00,NNE,22,4.0,-999.0,65,-99.99,,,-99.99,8.120000,,2013-09-13 12:00:00,
2013-09-13 07:42:00,49.0,37.0,-100.00,NNE,22,4.0,-999.0,65,-99.99,,,-99.99,8.120000,,2013-09-13 12:42:00,
2013-09-13 07:52:00,49.0,37.0,-100.00,NNE,22,4.0,-999.0,65,-99.99,,,-99.99,8.120000,,2013-09-13 12:52:00,
2013-09-13 08:00:00,49.0,38.0,-100.00,North,0,4.0,-999.0,64,-99.99,,,-99.99,61.480000,,2013-09-13 13:00:00,
2013-09-13 08:42:00,49.0,38.0,-100.00,North,0,4.0,-999.0,64,-99.99,,,-99.99,61.480000,,2013-09-13 13:42:00,
2013-09-13 08:52:00,49.0,38.0,-100.00,North,0,4.0,-999.0,64,-99.99,,,-99.99,61.480000,,2013-09-13 13:52:00,
2013-09-13 09:00:00,52.0,38.0,-100.00,NNE,22,6.0,-999.0,60,-99.99,,,-99.99,343.359985,,2013-09-13 14:00:00,
2013-09-13 09:42:00,52.0,38.0,-100.00,NNE,22,6.0,-999.0,60,-99.99,,,-99.99,343.359985,,2013-09-13 14:42:00,
2013-09-13 09:52:00,52.0,38.0,-100.00,NNE,22,6.0,-999.0,60,-99.99,,,-99.99,343.359985,,2013-09-13 14:52:00,
2013-09-13 12:00:00,55.0,39.0,-100.00,North,0,6.0,-999.0,54,-99.99,,,-99.99,685.559998,,2013-09-13 17:00:00,
2013-09-13 12:44:00,55.0,39.0,-100.00,North,0,6.0,-999.0,54,-99.99,,,-99.99,685.559998,,2013-09-13 17:44:00,
2013-09-13 12:53:00,55.0,39.0,-100.00,North,0,6.0,-999.0,54,-99.99,,,-99.99,685.559998,,2013-09-13 17:53:00,
2013-09-13 13:00:00,57.0,39.0,-100.00,North,0,5.0,-999.0,51,-99.99,,,-99.99,749.359985,,2013-09-13 18:00:00,
2013-09-13 13:42:00,57.0,39.0,-100.00,North,0,5.0,-999.0,51,-99.99,,,-99.99,749.359985,,2013-09-13 18:42:00,
2013-09-13 13:52:00,57.0,39.0,-100.00,North,0,5.0,-999.0,51,-99.99,,,-99.99,749.359985,,2013-09-13 18:52:00,
2013-09-13 14:00:00,58.0,40.0,-100.00,North,0,5.0,-999.0,49,-99.99,,,-99.99,729.640015,,2013-09-13 19:00:00,
2013-09-13 14:43:00,58.0,40.0,-100.00,North,0,5.0,-999.0,49,-99.99,,,-99.99,729.640015,,2013-09-13 19:43:00,
2013-09-13 14:52:00,58.0,40.0,-100.00,North,0,5.0,-999.0,49,-99.99,,,-99.99,729.640015,,2013-09-13 19:52:00,
2013-09-13 15:00:00,60.0,40.0,-100.00,NNE,22,5.0,-999.0,47,-99.99,,,-99.99,670.479980,,2013-09-13 20:00:00,
2013-09-13 15:43:00,60.0,40.0,-100.00,NNE,22,5.0,-999.0,47,-99.99,,,-99.99,670.479980,,2013-09-13 20:43:00,
2013-09-13 15:52:00,60.0,40.0,-100.00,NNE,22,5.0,-999.0,47,-99.99,,,-99.99,670.479980,,2013-09-13 20:52:00,
2013-09-13 16:00:00,61.0,40.0,-100.00,NNE,22,5.0,-999.0,46,-99.99,,,-99.99,555.640015,,2013-09-13 21:00:00,
2013-09-13 16:44:00,61.0,40.0,-100.00,NNE,22,5.0,-999.0,46,-99.99,,,-99.99,555.640015,,2013-09-13 21:44:00,
2013-09-13 16:54:00,61.0,40.0,-100.00,NNE,22,5.0,-999.0,46,-99.99,,,-99.99,555.640015,,2013-09-13 21:54:00,
2013-09-13 17:00:00,61.0,40.0,-100.00,North,0,4.0,-999.0,45,-99.99,,,-99.99,406.000000,,2013-09-13 22:00:00,
2013-09-13 17:43:00,61.0,40.0,-100.00,North,0,4.0,-999.0,45,-99.99,,,-99.99,406.000000,,2013-09-13 22:43:00,
2013-09-13 17:53:00,61.0,40.0,-100.00,North,0,4.0,-999.0,45,-99.99,,,-99.99,406.000000,,2013-09-13 22:53:00,
2013-09-13 18:00:00,60.0,40.0,-100.00,North,0,3.0,-999.0,46,-99.99,,,-99.99,235.479996,,2013-09-13 23:00:00,
2013-09-13 18:43:00,60.0,40.0,-100.00,North,0,3.0,-999.0,46,-99.99,,,-99.99,235.479996,,2013-09-13 23:43:00,
2013-09-13 18:53:00,60.0,40.0,-100.00,North,0,3.0,-999.0,46,-99.99,,,-99.99,235.479996,,2013-09-13 23:53:00,
2013-09-13 19:00:00,58.0,41.0,-100.00,NNW,337,1.0,-999.0,51,-99.99,,,-99.99,64.959999,,2013-09-14 00:00:00,
2013-09-13 19:42:00,58.0,41.0,-100.00,NNW,337,1.0,-999.0,51,-99.99,,,-99.99,64.959999,,2013-09-14 00:42:00,
2013-09-13 19:52:00,58.0,41.0,-100.00,NNW,337,1.0,-999.0,51,-99.99,,,-99.99,64.959999,,2013-09-14 00:52:00,
2013-09-13 20:00:00,50.0,41.0,-100.00,NNW,337,1.0,-999.0,70,-99.99,,,-99.99,1.160000,,2013-09-14 01:00:00,
2013-09-13 20:42:00,50.0,41.0,-100.00,NNW,337,1.0,-999.0,70,-99.99,,,-99.99,1.160000,,2013-09-14 01:42:00,
2013-09-13 20:52:00,50.0,41.0,-100.00,NNW,337,1.0,-999.0,70,-99.99,,,-99.99,1.160000,,2013-09-14 01:52:00,
2013-09-13 22:00:00,45.0,42.0,-100.00,NW,315,1.0,-999.0,88,-99.99,,,-99.99,0.000000,,2013-09-14 03:00:00,
2013-09-13 22:45:00,45.0,42.0,-100.00,NW,315,1.0,-999.0,88,-99.99,,,-99.99,0.000000,,2013-09-14 03:45:00,
2013-09-13 22:55:00,45.0,42.0,-100.00,NW,315,1.0,-999.0,88,-99.99,,,-99.99,0.000000,,2013-09-14 03:55:00,
2013-09-13 23:00:00,45.0,42.0,-100.00,NW,315,2.0,-999.0,89,-99.99,,,-99.99,0.000000,,2013-09-14 04:00:00,
2013-09-13 23:43:00,45.0,42.0,-100.00,NW,315,2.0,-999.0,89,-99.99,,,-99.99,0.000000,,2013-09-14 04:43:00,
2013-09-13 23:54:00,45.0,42.0,-100.00,NW,315,2.0,-999.0,89,-99.99,,,-99.99,0.000000,,2013-09-14 04:54:00,